Cape Med — 3EFC3 — position and weather

sailwx.info

Track history (hours):
 
Tides and Currents Weather Stations Pressure Air Temp Water Temp Dewpoint Dewpoint Depression Visibility Wind Speed Wind Dir Waves Ship Positions

Cape Med

Last reported at 2017-Dec-15 05:32 UTC. Time now 2017-Dec-15 06:22 UTC.
Position S 20°35' E 117°12'.

Length 290 m; draft 8.4 m.

Type: Cargo ship. MMSI: 371995000.

Date/timePositionNaut miles runAvg speedWind from/ knotsBaromVisibWave heightAir tempDewpointWater temp
2017-Dec-15 05:32S 20°35' E 117°12'0 0.0
2017-Dec-15 05:02S 20°35' E 117°12'0 0.0
2017-Dec-15 04:44S 20°35' E 117°12'0 0.0
2017-Dec-15 04:20S 20°35' E 117°12'0 0.0
2017-Dec-15 03:50S 20°35' E 117°12'0 0.0
2017-Dec-15 00:26S 20°35' E 117°12'0 0.0
2017-Dec-14 17:32S 20°35' E 117°12'0 0.0
2017-Dec-14 17:02S 20°35' E 117°12'0 0.0
2017-Dec-14 16:32S 20°35' E 117°12'0 0.0
2017-Dec-14 16:26S 20°35' E 117°12'0 0.0
2017-Dec-14 16:01S 20°35' E 117°12'4 3.6
2017-Dec-14 15:01S 20°33' E 117°15'1 1.6
2017-Dec-14 14:30S 20°33' E 117°16'2 3.2
2017-Dec-14 14:00S 20°32' E 117°18'3 6.3
2017-Dec-14 13:29S 20°31' E 117°21'2 4.6
2017-Dec-14 13:01S 20°31' E 117°23'1 2.3
2017-Dec-14 12:30S 20°31' E 117°25'1 2.3
2017-Dec-14 12:00S 20°30' E 117°26'3 6.3
2017-Dec-14 11:30S 20°27' E 117°27'713.2
2017-Dec-14 10:58S 20°21' E 117°28'713.7
2017-Dec-14 10:29S 20°14' E 117°31'713.6
2017-Dec-14 09:56S 20°07' E 117°34'613.6
2017-Dec-14 09:31S 20°02' E 117°36'713.7
2017-Dec-14 09:00S 19°56' E 117°39'713.6
2017-Dec-14 08:28S 19°49' E 117°42'713.8
2017-Dec-14 07:57S 19°42' E 117°45'613.5
2017-Dec-14 07:29S 19°36' E 117°47'713.5
2017-Dec-14 06:58S 19°30' E 117°50'613.3
2017-Dec-14 06:30S 19°24' E 117°53'713.3
2017-Dec-14 05:58S 19°18' E 117°56'613.2
2017-Dec-14 05:30S 19°12' E 117°59'713.2
2017-Dec-14 05:00S 19°06' E 118°01'713.4
2017-Dec-14 04:29S 18°60' E 118°04'713.2
2017-Dec-14 04:00S 18°54' E 118°06'813.2
2017-Dec-14 03:25S 18°46' E 118°08'613.4
2017-Dec-14 02:59S 18°40' E 118°09'713.2
2017-Dec-14 02:29S 18°35' E 118°13'713.3
2017-Dec-14 01:59S 18°29' E 118°16'713.2
2017-Dec-14 01:29S 18°23' E 118°19'613.2
2017-Dec-14 01:00S 18°17' E 118°22'813.3
2017-Dec-14 00:23S 18°10' E 118°25'1413.0
2017-Dec-13 23:18S 17°57' E 118°32'412.9
2017-Dec-13 22:59S 17°53' E 118°33'  
Track history (hours):
 
Tides and Currents Weather Stations Pressure Air Temp Water Temp Dewpoint Dewpoint Depression Visibility Wind Speed Wind Dir Waves Ship Positions

Cape Med

Last reported at 2017-Dec-15 05:32 UTC. Time now 2017-Dec-15 06:22 UTC.
Position S 20°35' E 117°12'.

Length 290 m; draft 8.4 m.

Type: Cargo ship. MMSI: 371995000.

Date/timePositionNaut miles runAvg speedWind from/ knotsBaromVisibWave heightAir tempDewpointWater temp
2017-Dec-15 05:32S 20°35' E 117°12'0 0.0
2017-Dec-15 05:02S 20°35' E 117°12'0 0.0
2017-Dec-15 04:44S 20°35' E 117°12'0 0.0
2017-Dec-15 04:20S 20°35' E 117°12'0 0.0
2017-Dec-15 03:50S 20°35' E 117°12'0 0.0
2017-Dec-15 00:26S 20°35' E 117°12'0 0.0
2017-Dec-14 17:32S 20°35' E 117°12'0 0.0
2017-Dec-14 17:02S 20°35' E 117°12'0 0.0
2017-Dec-14 16:32S 20°35' E 117°12'0 0.0
2017-Dec-14 16:26S 20°35' E 117°12'0 0.0
2017-Dec-14 16:01S 20°35' E 117°12'4 3.6
2017-Dec-14 15:01S 20°33' E 117°15'1 1.6
2017-Dec-14 14:30S 20°33' E 117°16'2 3.2
2017-Dec-14 14:00S 20°32' E 117°18'3 6.3
2017-Dec-14 13:29S 20°31' E 117°21'2 4.6
2017-Dec-14 13:01S 20°31' E 117°23'1 2.3
2017-Dec-14 12:30S 20°31' E 117°25'1 2.3
2017-Dec-14 12:00S 20°30' E 117°26'3 6.3
2017-Dec-14 11:30S 20°27' E 117°27'713.2
2017-Dec-14 10:58S 20°21' E 117°28'713.7
2017-Dec-14 10:29S 20°14' E 117°31'713.6
2017-Dec-14 09:56S 20°07' E 117°34'613.6
2017-Dec-14 09:31S 20°02' E 117°36'713.7
2017-Dec-14 09:00S 19°56' E 117°39'713.6
2017-Dec-14 08:28S 19°49' E 117°42'713.8
2017-Dec-14 07:57S 19°42' E 117°45'613.5
2017-Dec-14 07:29S 19°36' E 117°47'713.5
2017-Dec-14 06:58S 19°30' E 117°50'613.3
2017-Dec-14 06:30S 19°24' E 117°53'713.3
2017-Dec-14 05:58S 19°18' E 117°56'613.2
2017-Dec-14 05:30S 19°12' E 117°59'713.2
2017-Dec-14 05:00S 19°06' E 118°01'713.4
2017-Dec-14 04:29S 18°60' E 118°04'713.2
2017-Dec-14 04:00S 18°54' E 118°06'813.2
2017-Dec-14 03:25S 18°46' E 118°08'613.4
2017-Dec-14 02:59S 18°40' E 118°09'713.2
2017-Dec-14 02:29S 18°35' E 118°13'713.3
2017-Dec-14 01:59S 18°29' E 118°16'713.2
2017-Dec-14 01:29S 18°23' E 118°19'613.2
2017-Dec-14 01:00S 18°17' E 118°22'813.3
2017-Dec-14 00:23S 18°10' E 118°25'1413.0
2017-Dec-13 23:18S 17°57' E 118°32'412.9
2017-Dec-13 22:59S 17°53' E 118°33'  

Dump ship's entire track history